Time,TemperatureF,DewpointF,PressureIn,WindDirection,WindDirectionDegrees,WindSpeedMPH,WindSpeedGustMPH,Humidity,HourlyPrecipIn,Conditions,Clouds,dailyrainin,SoftwareType,DateUTC
2013-02-20 00:01:00,41.0,32.0,-100.00,West,280,18.0,25.0,69,-99.99,,,-99.99,,2013-02-20 05:01:00,
2013-02-20 00:12:00,40.0,29.0,-100.00,West,270,20.0,27.0,63,-99.99,,,-99.99,,2013-02-20 05:12:00,
2013-02-20 00:22:00,40.0,29.0,-100.00,West,270,20.0,27.0,63,-99.99,,,-99.99,,2013-02-20 05:22:00,
2013-02-20 00:31:00,40.0,29.0,-100.00,West,270,20.0,27.0,63,-99.99,,,-99.99,,2013-02-20 05:31:00,
2013-02-20 00:42:00,40.0,29.0,-100.00,West,270,20.0,27.0,63,-99.99,,,-99.99,,2013-02-20 05:42:00,
2013-02-20 00:52:00,39.0,27.0,-100.00,West,270,20.0,27.0,60,-99.99,,,-99.99,,2013-02-20 05:52:00,
2013-02-20 01:01:00,39.0,27.0,-100.00,West,270,20.0,27.0,60,-99.99,,,-99.99,,2013-02-20 06:01:00,
2013-02-20 01:11:00,39.0,27.0,-100.00,West,270,20.0,27.0,60,-99.99,,,-99.99,,2013-02-20 06:11:00,
2013-02-20 01:21:00,38.0,24.0,-100.00,West,260,20.0,27.0,55,-99.99,,,-99.99,,2013-02-20 06:21:00,
2013-02-20 01:31:00,38.0,24.0,-100.00,West,260,20.0,27.0,55,-99.99,,,-99.99,,2013-02-20 06:31:00,
2013-02-20 01:41:00,38.0,24.0,-100.00,West,260,20.0,27.0,55,-99.99,,,-99.99,,2013-02-20 06:41:00,
2013-02-20 01:51:00,38.0,24.0,-100.00,West,260,20.0,27.0,56,-99.99,,,-99.99,,2013-02-20 06:51:00,
2013-02-20 02:01:00,38.0,24.0,-100.00,West,260,20.0,27.0,56,-99.99,,,-99.99,,2013-02-20 07:01:00,
2013-02-20 02:11:00,37.0,24.0,-100.00,West,260,20.0,25.0,57,-99.99,,,-99.99,,2013-02-20 07:11:00,
2013-02-20 02:21:00,37.0,24.0,-100.00,West,260,20.0,25.0,57,-99.99,,,-99.99,,2013-02-20 07:21:00,
2013-02-20 02:31:00,37.0,24.0,-100.00,West,260,20.0,25.0,57,-99.99,,,-99.99,,2013-02-20 07:31:00,
2013-02-20 02:41:00,37.0,24.0,-100.00,West,260,20.0,25.0,57,-99.99,,,-99.99,,2013-02-20 07:41:00,
2013-02-20 02:51:00,37.0,24.0,-100.00,West,260,18.0,22.0,58,-99.99,,,-99.99,,2013-02-20 07:51:00,
2013-02-20 03:01:00,37.0,24.0,-100.00,West,260,18.0,22.0,58,-99.99,,,-99.99,,2013-02-20 08:01:00,
2013-02-20 03:11:00,37.0,23.0,-100.00,West,280,18.0,22.0,58,-99.99,,,-99.99,,2013-02-20 08:11:00,
2013-02-20 03:21:00,37.0,23.0,-100.00,West,280,18.0,22.0,58,-99.99,,,-99.99,,2013-02-20 08:21:00,
2013-02-20 03:31:00,37.0,23.0,-100.00,West,280,18.0,22.0,58,-99.99,,,-99.99,,2013-02-20 08:31:00,
2013-02-20 03:41:00,37.0,23.0,-100.00,West,280,18.0,22.0,58,-99.99,,,-99.99,,2013-02-20 08:41:00,
2013-02-20 03:51:00,36.0,23.0,-100.00,West,270,22.0,31.0,58,-99.99,,,-99.99,,2013-02-20 08:51:00,
2013-02-20 04:01:00,36.0,23.0,-100.00,West,270,22.0,31.0,58,-99.99,,,-99.99,,2013-02-20 09:01:00,
2013-02-20 04:11:00,36.0,22.0,-100.00,West,270,20.0,27.0,56,-99.99,,,-99.99,,2013-02-20 09:11:00,
2013-02-20 04:21:00,36.0,22.0,-100.00,West,270,20.0,27.0,56,-99.99,,,-99.99,,2013-02-20 09:21:00,
2013-02-20 04:31:00,36.0,22.0,-100.00,West,270,20.0,27.0,56,-99.99,,,-99.99,,2013-02-20 09:31:00,
2013-02-20 04:41:00,36.0,22.0,-100.00,West,270,20.0,27.0,56,-99.99,,,-99.99,,2013-02-20 09:41:00,
2013-02-20 04:51:00,35.0,22.0,-100.00,West,260,18.0,25.0,59,-99.99,,,-99.99,,2013-02-20 09:51:00,
2013-02-20 05:01:00,35.0,22.0,-100.00,West,260,18.0,25.0,59,-99.99,,,-99.99,,2013-02-20 10:01:00,
2013-02-20 05:11:00,34.0,22.0,-100.00,West,270,22.0,27.0,60,-99.99,,,-99.99,,2013-02-20 10:11:00,
2013-02-20 05:21:00,34.0,22.0,-100.00,West,270,22.0,27.0,60,-99.99,,,-99.99,,2013-02-20 10:21:00,
2013-02-20 05:31:00,34.0,22.0,-100.00,West,270,22.0,27.0,60,-99.99,,,-99.99,,2013-02-20 10:31:00,
2013-02-20 05:41:00,34.0,22.0,-100.00,West,270,22.0,27.0,60,-99.99,,,-99.99,,2013-02-20 10:41:00,
2013-02-20 05:51:00,34.0,22.0,-100.00,West,270,20.0,27.0,60,-99.99,,,-99.99,,2013-02-20 10:51:00,
2013-02-20 06:01:00,34.0,22.0,-100.00,West,270,20.0,27.0,60,-99.99,,,-99.99,,2013-02-20 11:01:00,
2013-02-20 06:11:00,33.0,21.0,-100.00,West,280,20.0,25.0,59,-99.99,,,-99.99,,2013-02-20 11:11:00,
2013-02-20 06:21:00,33.0,21.0,-100.00,West,280,20.0,25.0,59,-99.99,,,-99.99,,2013-02-20 11:21:00,
2013-02-20 06:31:00,33.0,21.0,-100.00,West,280,20.0,25.0,59,-99.99,,,-99.99,,2013-02-20 11:31:00,
2013-02-20 06:41:00,33.0,21.0,-100.00,West,280,20.0,25.0,59,-99.99,,,-99.99,,2013-02-20 11:41:00,
2013-02-20 06:52:00,33.0,20.0,-100.00,West,260,20.0,25.0,58,-99.99,,,-99.99,,2013-02-20 11:52:00,
2013-02-20 07:01:00,33.0,20.0,-100.00,West,260,20.0,25.0,58,-99.99,,,-99.99,,2013-02-20 12:01:00,
2013-02-20 07:11:00,33.0,20.0,-100.00,West,260,20.0,25.0,58,-99.99,,,-99.99,,2013-02-20 12:11:00,
2013-02-20 07:21:00,33.0,19.0,-100.00,West,270,20.0,25.0,57,-99.99,,,-99.99,,2013-02-20 12:21:00,
2013-02-20 07:31:00,33.0,19.0,-100.00,West,270,20.0,25.0,57,-99.99,,,-99.99,,2013-02-20 12:31:00,
2013-02-20 07:41:00,33.0,19.0,-100.00,West,270,20.0,25.0,57,-99.99,,,-99.99,,2013-02-20 12:41:00,
2013-02-20 07:52:00,33.0,18.0,-100.00,West,280,20.0,27.0,54,-99.99,,,-99.99,,2013-02-20 12:52:00,
2013-02-20 08:01:00,33.0,18.0,-100.00,West,280,20.0,27.0,54,-99.99,,,-99.99,,2013-02-20 13:01:00,
2013-02-20 08:11:00,33.0,18.0,-100.00,West,280,20.0,27.0,54,-99.99,,,-99.99,,2013-02-20 13:11:00,
2013-02-20 08:22:00,32.0,18.0,-100.00,West,270,20.0,27.0,54,-99.99,,,-99.99,,2013-02-20 13:22:00,
2013-02-20 08:31:00,32.0,18.0,-100.00,West,270,20.0,27.0,54,-99.99,,,-99.99,,2013-02-20 13:31:00,
2013-02-20 08:42:00,32.0,18.0,-100.00,West,270,20.0,27.0,54,-99.99,,,-99.99,,2013-02-20 13:42:00,
2013-02-20 08:51:00,32.0,19.0,-100.00,West,270,20.0,29.0,57,-99.99,,,-99.99,,2013-02-20 13:51:00,
2013-02-20 09:01:00,32.0,19.0,-100.00,West,270,20.0,29.0,57,-99.99,,,-99.99,,2013-02-20 14:01:00,
2013-02-20 09:11:00,32.0,20.0,-100.00,West,270,20.0,27.0,60,-99.99,,,-99.99,,2013-02-20 14:11:00,
2013-02-20 09:21:00,32.0,20.0,-100.00,West,270,20.0,27.0,60,-99.99,,,-99.99,,2013-02-20 14:21:00,
2013-02-20 09:32:00,32.0,20.0,-100.00,West,270,20.0,27.0,60,-99.99,,,-99.99,,2013-02-20 14:32:00,
2013-02-20 09:42:00,32.0,20.0,-100.00,West,270,20.0,27.0,60,-99.99,,,-99.99,,2013-02-20 14:42:00,
2013-02-20 09:52:00,32.0,19.0,-100.00,West,280,20.0,27.0,58,-99.99,,,-99.99,,2013-02-20 14:52:00,
2013-02-20 10:01:00,32.0,19.0,-100.00,West,280,20.0,27.0,58,-99.99,,,-99.99,,2013-02-20 15:01:00,
2013-02-20 10:11:00,32.0,19.0,-100.00,West,280,20.0,27.0,58,-99.99,,,-99.99,,2013-02-20 15:11:00,
2013-02-20 10:22:00,31.0,17.0,-100.00,West,280,22.0,29.0,53,-99.99,,,-99.99,,2013-02-20 15:22:00,
2013-02-20 10:31:00,31.0,17.0,-100.00,West,280,22.0,29.0,53,-99.99,,,-99.99,,2013-02-20 15:31:00,
2013-02-20 10:41:00,31.0,17.0,-100.00,West,280,22.0,29.0,53,-99.99,,,-99.99,,2013-02-20 15:41:00,
2013-02-20 10:51:00,31.0,15.0,-100.00,West,270,22.0,31.0,49,-99.99,,,-99.99,,2013-02-20 15:51:00,
2013-02-20 11:01:00,31.0,15.0,-100.00,West,270,22.0,31.0,49,-99.99,,,-99.99,,2013-02-20 16:01:00,
2013-02-20 11:11:00,31.0,15.0,-100.00,West,270,22.0,31.0,49,-99.99,,,-99.99,,2013-02-20 16:11:00,
2013-02-20 11:21:00,31.0,13.0,-100.00,West,280,25.0,31.0,46,-99.99,,,-99.99,,2013-02-20 16:21:00,
2013-02-20 11:32:00,31.0,13.0,-100.00,West,280,25.0,31.0,46,-99.99,,,-99.99,,2013-02-20 16:32:00,
2013-02-20 11:41:00,31.0,13.0,-100.00,West,280,25.0,31.0,46,-99.99,,,-99.99,,2013-02-20 16:41:00,
2013-02-20 11:51:00,31.0,14.0,-100.00,West,280,20.0,27.0,47,-99.99,,,-99.99,,2013-02-20 16:51:00,
2013-02-20 12:01:00,31.0,14.0,-100.00,West,280,20.0,27.0,47,-99.99,,,-99.99,,2013-02-20 17:01:00,
2013-02-20 12:11:00,31.0,14.0,-100.00,West,280,20.0,27.0,48,-99.99,,,-99.99,,2013-02-20 17:11:00,
2013-02-20 12:21:00,31.0,14.0,-100.00,West,280,20.0,27.0,48,-99.99,,,-99.99,,2013-02-20 17:21:00,
2013-02-20 12:32:00,31.0,14.0,-100.00,West,280,20.0,27.0,48,-99.99,,,-99.99,,2013-02-20 17:32:00,
2013-02-20 12:41:00,31.0,14.0,-100.00,West,280,20.0,27.0,48,-99.99,,,-99.99,,2013-02-20 17:41:00,
2013-02-20 12:51:00,31.0,13.0,-100.00,West,280,18.0,27.0,46,-99.99,,,-99.99,,2013-02-20 17:51:00,
2013-02-20 13:02:00,31.0,13.0,-100.00,West,280,18.0,27.0,46,-99.99,,,-99.99,,2013-02-20 18:02:00,
2013-02-20 13:11:00,32.0,13.0,-100.00,WNW,290,20.0,25.0,46,-99.99,,,-99.99,,2013-02-20 18:11:00,
2013-02-20 13:21:00,32.0,13.0,-100.00,WNW,290,20.0,25.0,46,-99.99,,,-99.99,,2013-02-20 18:21:00,
2013-02-20 13:31:00,32.0,13.0,-100.00,WNW,290,20.0,25.0,46,-99.99,,,-99.99,,2013-02-20 18:31:00,
2013-02-20 13:41:00,32.0,13.0,-100.00,WNW,290,20.0,25.0,46,-99.99,,,-99.99,,2013-02-20 18:41:00,
2013-02-20 13:51:00,31.0,13.0,-100.00,WNW,290,20.0,27.0,45,-99.99,,,-99.99,,2013-02-20 18:51:00,
2013-02-20 14:01:00,31.0,13.0,-100.00,WNW,290,20.0,27.0,45,-99.99,,,-99.99,,2013-02-20 19:01:00,
2013-02-20 14:11:00,31.0,13.0,-100.00,WNW,290,20.0,27.0,45,-99.99,,,-99.99,,2013-02-20 19:11:00,
2013-02-20 18:21:00,31.0,14.0,-100.00,WNW,290,20.0,29.0,47,-99.99,,,-99.99,,2013-02-20 23:21:00,
2013-02-20 18:31:00,31.0,14.0,-100.00,WNW,290,20.0,29.0,47,-99.99,,,-99.99,,2013-02-20 23:31:00,
2013-02-20 18:42:00,31.0,14.0,-100.00,WNW,290,20.0,29.0,47,-99.99,,,-99.99,,2013-02-20 23:42:00,
2013-02-20 18:51:00,31.0,15.0,-100.00,WNW,290,20.0,29.0,50,-99.99,,,-99.99,,2013-02-20 23:51:00,
2013-02-20 19:02:00,31.0,15.0,-100.00,WNW,290,20.0,29.0,50,-99.99,,,-99.99,,2013-02-21 00:02:00,
2013-02-20 19:11:00,31.0,15.0,-100.00,WNW,290,20.0,29.0,50,-99.99,,,-99.99,,2013-02-21 00:11:00,
2013-02-20 19:21:00,30.0,15.0,-100.00,WNW,290,25.0,36.0,52,-99.99,,,-99.99,,2013-02-21 00:21:00,
2013-02-20 19:31:00,30.0,15.0,-100.00,WNW,290,25.0,36.0,52,-99.99,,,-99.99,,2013-02-21 00:31:00,
2013-02-20 19:41:00,30.0,15.0,-100.00,WNW,290,25.0,36.0,52,-99.99,,,-99.99,,2013-02-21 00:41:00,
2013-02-20 19:52:00,30.0,15.0,-100.00,West,280,22.0,31.0,52,-99.99,,,-99.99,,2013-02-21 00:52:00,
2013-02-20 20:01:00,30.0,15.0,-100.00,West,280,22.0,31.0,52,-99.99,,,-99.99,,2013-02-21 01:01:00,
2013-02-20 20:11:00,30.0,14.0,-100.00,West,280,25.0,31.0,51,-99.99,,,-99.99,,2013-02-21 01:11:00,
2013-02-20 20:21:00,30.0,14.0,-100.00,West,280,25.0,31.0,51,-99.99,,,-99.99,,2013-02-21 01:21:00,
2013-02-20 20:31:00,30.0,14.0,-100.00,West,280,25.0,31.0,51,-99.99,,,-99.99,,2013-02-21 01:31:00,
2013-02-20 20:41:00,30.0,14.0,-100.00,West,280,25.0,31.0,51,-99.99,,,-99.99,,2013-02-21 01:41:00,
2013-02-20 20:51:00,29.0,13.0,-100.00,West,280,27.0,36.0,49,-99.99,,,-99.99,,2013-02-21 01:51:00,
2013-02-20 21:01:00,29.0,13.0,-100.00,West,280,27.0,36.0,49,-99.99,,,-99.99,,2013-02-21 02:01:00,
2013-02-20 21:11:00,29.0,13.0,-100.00,WNW,290,27.0,36.0,51,-99.99,,,-99.99,,2013-02-21 02:11:00,
2013-02-20 21:21:00,29.0,13.0,-100.00,WNW,290,27.0,36.0,51,-99.99,,,-99.99,,2013-02-21 02:21:00,
2013-02-20 21:32:00,29.0,13.0,-100.00,WNW,290,27.0,36.0,51,-99.99,,,-99.99,,2013-02-21 02:32:00,
2013-02-20 21:41:00,29.0,13.0,-100.00,WNW,290,27.0,36.0,51,-99.99,,,-99.99,,2013-02-21 02:41:00,
2013-02-20 22:01:00,29.0,13.0,-100.00,WNW,290,25.0,31.0,51,-99.99,,,-99.99,,2013-02-21 03:01:00,
2013-02-20 22:11:00,29.0,13.0,-100.00,WNW,290,25.0,31.0,51,-99.99,,,-99.99,,2013-02-21 03:11:00,
2013-02-20 22:21:00,28.0,13.0,-100.00,West,280,25.0,34.0,53,-99.99,,,-99.99,,2013-02-21 03:21:00,
2013-02-20 22:31:00,28.0,13.0,-100.00,West,280,25.0,34.0,53,-99.99,,,-99.99,,2013-02-21 03:31:00,
2013-02-20 22:41:00,28.0,13.0,-100.00,West,280,25.0,34.0,53,-99.99,,,-99.99,,2013-02-21 03:41:00,
2013-02-20 22:51:00,28.0,14.0,-100.00,WNW,290,25.0,29.0,55,-99.99,,,-99.99,,2013-02-21 03:51:00,
2013-02-20 23:01:00,28.0,14.0,-100.00,WNW,290,25.0,29.0,55,-99.99,,,-99.99,,2013-02-21 04:01:00,
2013-02-20 23:11:00,28.0,14.0,-100.00,WNW,290,25.0,29.0,55,-99.99,,,-99.99,,2013-02-21 04:11:00,
2013-02-20 23:21:00,28.0,14.0,-100.00,West,280,25.0,31.0,55,-99.99,,,-99.99,,2013-02-21 04:21:00,
2013-02-20 23:31:00,28.0,14.0,-100.00,West,280,25.0,31.0,55,-99.99,,,-99.99,,2013-02-21 04:31:00,
2013-02-20 23:41:00,28.0,14.0,-100.00,West,280,25.0,31.0,55,-99.99,,,-99.99,,2013-02-21 04:41:00,
2013-02-20 23:51:00,28.0,14.0,-100.00,WNW,290,22.0,31.0,56,-99.99,,,-99.99,,2013-02-21 04:51:00,